Terminal Aerodrome Forecast
Issued by NWS Charleston, WV

Current Version | Previous Version | Graphics & Text | Print | Product List | Glossary On
Versions: 1 2 3 4 5 6 7 8 9 10 11 12 13 14 15 16 17 18 19 20 21 22
000
FTUS41 KRLX 011510 AAA
TAFEKN
TAF AMD
KEKN 011510Z 0115/0212 19008KT P6SM FEW110
     FM012000 25007KT 5SM -SHRA VCTS BKN040CB
     FM020200 VRB02KT P6SM -SHRA VCTS OVC040CB
     FM020800 22004KT 5SM -SHRA VCTS OVC020CB=

USA.gov is the U.S. government's official web portal to all federal, state and local government web resources and services.